sensor_id;sensor_type;location;lat;lon;timestamp;P1;durP1;ratioP1;P2;durP2;ratioP2
7013;SDS011;3547;50.774;12.918;2023-05-13T00:19:35;3.93;;;2.73;;
7013;SDS011;3547;50.774;12.918;2023-05-13T00:22:01;2.10;;;1.90;;
7013;SDS011;3547;50.774;12.918;2023-05-13T00:24:28;2.20;;;1.97;;
7013;SDS011;3547;50.774;12.918;2023-05-13T00:26:54;4.13;;;2.10;;
7013;SDS011;3547;50.774;12.918;2023-05-13T00:29:20;2.17;;;1.97;;
7013;SDS011;3547;50.774;12.918;2023-05-13T00:31:47;1.93;;;1.83;;
7013;SDS011;3547;50.774;12.918;2023-05-13T00:34:13;4.50;;;2.20;;
7013;SDS011;3547;50.774;12.918;2023-05-13T00:36:40;2.30;;;1.80;;
7013;SDS011;3547;50.774;12.918;2023-05-13T00:39:06;2.50;;;2.27;;
7013;SDS011;3547;50.774;12.918;2023-05-13T00:41:32;2.00;;;1.80;;
7013;SDS011;3547;50.774;12.918;2023-05-13T00:43:58;2.70;;;2.03;;
7013;SDS011;3547;50.774;12.918;2023-05-13T00:46:25;2.40;;;2.20;;
7013;SDS011;3547;50.774;12.918;2023-05-13T00:48:57;2.53;;;2.27;;
7013;SDS011;3547;50.774;12.918;2023-05-13T00:51:24;4.03;;;2.13;;
7013;SDS011;3547;50.774;12.918;2023-05-13T00:53:50;2.40;;;2.20;;
7013;SDS011;3547;50.774;12.918;2023-05-13T00:56:18;2.87;;;2.07;;
7013;SDS011;3547;50.774;12.918;2023-05-13T00:58:46;2.07;;;1.87;;
7013;SDS011;3547;50.774;12.918;2023-05-13T01:06:37;2.20;;;2.03;;
7013;SDS011;3547;50.774;12.918;2023-05-13T01:09:36;3.67;;;2.57;;
7013;SDS011;3547;50.774;12.918;2023-05-13T01:12:25;3.10;;;1.93;;
7013;SDS011;3547;50.774;12.918;2023-05-13T01:14:58;3.97;;;2.13;;
7013;SDS011;3547;50.774;12.918;2023-05-13T01:20:12;2.70;;;1.97;;
7013;SDS011;3547;50.774;12.918;2023-05-13T01:22:40;2.83;;;2.23;;
7013;SDS011;3547;50.774;12.918;2023-05-13T01:25:10;2.13;;;1.93;;
7013;SDS011;3547;50.774;12.918;2023-05-13T01:27:39;2.27;;;2.07;;
7013;SDS011;3547;50.774;12.918;2023-05-13T01:30:22;4.13;;;2.33;;
7013;SDS011;3547;50.774;12.918;2023-05-13T01:32:50;1.93;;;1.80;;
7013;SDS011;3547;50.774;12.918;2023-05-13T01:35:18;2.90;;;2.20;;
7013;SDS011;3547;50.774;12.918;2023-05-13T01:37:46;1.97;;;1.77;;
7013;SDS011;3547;50.774;12.918;2023-05-13T01:40:14;2.00;;;1.80;;
7013;SDS011;3547;50.774;12.918;2023-05-13T01:42:41;2.27;;;1.70;;
7013;SDS011;3547;50.774;12.918;2023-05-13T01:45:08;2.73;;;2.00;;
7013;SDS011;3547;50.774;12.918;2023-05-13T01:47:35;1.93;;;1.73;;
7013;SDS011;3547;50.774;12.918;2023-05-13T01:50:02;1.83;;;1.67;;
7013;SDS011;3547;50.774;12.918;2023-05-13T01:52:28;2.23;;;2.03;;
7013;SDS011;3547;50.774;12.918;2023-05-13T01:54:56;2.23;;;2.00;;
7013;SDS011;3547;50.774;12.918;2023-05-13T01:57:22;2.03;;;1.90;;
7013;SDS011;3547;50.774;12.918;2023-05-13T01:59:48;5.53;;;1.90;;
7013;SDS011;3547;50.774;12.918;2023-05-13T02:02:15;1.87;;;1.73;;
7013;SDS011;3547;50.774;12.918;2023-05-13T02:04:41;2.10;;;1.90;;
7013;SDS011;3547;50.774;12.918;2023-05-13T02:07:08;2.00;;;1.70;;
7013;SDS011;3547;50.774;12.918;2023-05-13T02:09:34;2.00;;;1.80;;
7013;SDS011;3547;50.774;12.918;2023-05-13T02:12:02;2.23;;;2.03;;
7013;SDS011;3547;50.774;12.918;2023-05-13T02:17:51;1.87;;;1.50;;
7013;SDS011;3547;50.774;12.918;2023-05-13T02:20:19;2.70;;;1.87;;
7013;SDS011;3547;50.774;12.918;2023-05-13T02:22:46;1.70;;;1.60;;
7013;SDS011;3547;50.774;12.918;2023-05-13T02:38:14;1.83;;;1.67;;
7013;SDS011;3547;50.774;12.918;2023-05-13T02:40:40;2.00;;;1.53;;
7013;SDS011;3547;50.774;12.918;2023-05-13T02:50:29;2.73;;;2.10;;
7013;SDS011;3547;50.774;12.918;2023-05-13T03:00:16;2.87;;;1.87;;
7013;SDS011;3547;50.774;12.918;2023-05-13T03:12:30;2.17;;;1.73;;
7013;SDS011;3547;50.774;12.918;2023-05-13T03:15:03;2.60;;;2.33;;
7013;SDS011;3547;50.774;12.918;2023-05-13T03:21:17;2.00;;;1.80;;
7013;SDS011;3547;50.774;12.918;2023-05-13T03:23:51;2.27;;;1.97;;
7013;SDS011;3547;50.774;12.918;2023-05-13T03:32:27;2.10;;;1.90;;
7013;SDS011;3547;50.774;12.918;2023-05-13T03:34:58;6.17;;;2.43;;
7013;SDS011;3547;50.774;12.918;2023-05-13T03:37:34;3.87;;;1.53;;
7013;SDS011;3547;50.774;12.918;2023-05-13T03:40:02;3.27;;;2.20;;
7013;SDS011;3547;50.774;12.918;2023-05-13T03:42:51;2.30;;;2.10;;
7013;SDS011;3547;50.774;12.918;2023-05-13T03:56:02;2.23;;;1.80;;
7013;SDS011;3547;50.774;12.918;2023-05-13T03:58:43;3.20;;;2.50;;
7013;SDS011;3547;50.774;12.918;2023-05-13T04:02:15;2.83;;;2.30;;
7013;SDS011;3547;50.774;12.918;2023-05-13T04:05:41;2.07;;;1.80;;
7013;SDS011;3547;50.774;12.918;2023-05-13T04:11:55;3.83;;;2.20;;
7013;SDS011;3547;50.774;12.918;2023-05-13T04:19:06;2.73;;;2.30;;
7013;SDS011;3547;50.774;12.918;2023-05-13T04:21:32;2.47;;;2.23;;
7013;SDS011;3547;50.774;12.918;2023-05-13T04:24:04;2.30;;;2.10;;
7013;SDS011;3547;50.774;12.918;2023-05-13T04:26:32;2.33;;;1.90;;
7013;SDS011;3547;50.774;12.918;2023-05-13T04:29:03;2.43;;;2.10;;
7013;SDS011;3547;50.774;12.918;2023-05-13T04:31:29;2.20;;;2.00;;
7013;SDS011;3547;50.774;12.918;2023-05-13T04:34:05;2.03;;;1.80;;
7013;SDS011;3547;50.774;12.918;2023-05-13T04:36:38;4.13;;;2.40;;
7013;SDS011;3547;50.774;12.918;2023-05-13T04:42:53;2.40;;;2.17;;
7013;SDS011;3547;50.774;12.918;2023-05-13T04:45:53;2.57;;;1.83;;
7013;SDS011;3547;50.774;12.918;2023-05-13T04:48:20;2.60;;;2.10;;
7013;SDS011;3547;50.774;12.918;2023-05-13T04:53:29;2.27;;;2.07;;
7013;SDS011;3547;50.774;12.918;2023-05-13T04:55:57;3.13;;;2.07;;
7013;SDS011;3547;50.774;12.918;2023-05-13T04:58:26;2.90;;;2.00;;
7013;SDS011;3547;50.774;12.918;2023-05-13T05:04:33;2.27;;;2.07;;
7013;SDS011;3547;50.774;12.918;2023-05-13T05:07:33;2.57;;;2.27;;
7013;SDS011;3547;50.774;12.918;2023-05-13T05:10:02;2.27;;;2.10;;
7013;SDS011;3547;50.774;12.918;2023-05-13T05:12:28;3.20;;;2.40;;
7013;SDS011;3547;50.774;12.918;2023-05-13T05:15:06;2.10;;;1.90;;
7013;SDS011;3547;50.774;12.918;2023-05-13T05:18:15;7.00;;;2.13;;
7013;SDS011;3547;50.774;12.918;2023-05-13T05:20:44;2.50;;;2.30;;
7013;SDS011;3547;50.774;12.918;2023-05-13T05:25:50;2.93;;;2.50;;
7013;SDS011;3547;50.774;12.918;2023-05-13T05:30:53;3.10;;;2.10;;
7013;SDS011;3547;50.774;12.918;2023-05-13T05:33:29;2.00;;;1.80;;
7013;SDS011;3547;50.774;12.918;2023-05-13T05:39:18;2.90;;;2.20;;
7013;SDS011;3547;50.774;12.918;2023-05-13T05:41:44;2.60;;;1.90;;
7013;SDS011;3547;50.774;12.918;2023-05-13T05:44:11;2.63;;;2.00;;
7013;SDS011;3547;50.774;12.918;2023-05-13T05:46:38;2.50;;;2.30;;
7013;SDS011;3547;50.774;12.918;2023-05-13T05:49:05;2.20;;;2.00;;
7013;SDS011;3547;50.774;12.918;2023-05-13T05:51:32;1.83;;;1.70;;
7013;SDS011;3547;50.774;12.918;2023-05-13T05:53:59;3.33;;;2.20;;
7013;SDS011;3547;50.774;12.918;2023-05-13T05:56:26;2.10;;;1.70;;
7013;SDS011;3547;50.774;12.918;2023-05-13T05:58:52;3.07;;;2.17;;
7013;SDS011;3547;50.774;12.918;2023-05-13T06:01:18;2.17;;;1.97;;
7013;SDS011;3547;50.774;12.918;2023-05-13T06:03:44;2.27;;;1.43;;
7013;SDS011;3547;50.774;12.918;2023-05-13T06:06:10;3.37;;;2.10;;
7013;SDS011;3547;50.774;12.918;2023-05-13T06:08:37;1.80;;;1.70;;
7013;SDS011;3547;50.774;12.918;2023-05-13T06:11:06;1.63;;;1.53;;
7013;SDS011;3547;50.774;12.918;2023-05-13T06:13:32;2.40;;;2.13;;
7013;SDS011;3547;50.774;12.918;2023-05-13T06:15:59;2.13;;;1.80;;
7013;SDS011;3547;50.774;12.918;2023-05-13T06:18:25;2.13;;;1.90;;
7013;SDS011;3547;50.774;12.918;2023-05-13T06:20:51;5.20;;;2.20;;
7013;SDS011;3547;50.774;12.918;2023-05-13T06:23:17;2.30;;;2.10;;
7013;SDS011;3547;50.774;12.918;2023-05-13T06:25:44;2.83;;;2.20;;
7013;SDS011;3547;50.774;12.918;2023-05-13T06:28:11;1.80;;;1.70;;
7013;SDS011;3547;50.774;12.918;2023-05-13T06:30:37;2.60;;;1.83;;
7013;SDS011;3547;50.774;12.918;2023-05-13T06:33:03;2.00;;;1.60;;
7013;SDS011;3547;50.774;12.918;2023-05-13T06:35:30;1.97;;;1.77;;
7013;SDS011;3547;50.774;12.918;2023-05-13T06:37:56;2.40;;;2.20;;
7013;SDS011;3547;50.774;12.918;2023-05-13T06:40:22;2.10;;;1.90;;
7013;SDS011;3547;50.774;12.918;2023-05-13T06:42:48;2.17;;;1.93;;
7013;SDS011;3547;50.774;12.918;2023-05-13T06:45:15;2.43;;;1.60;;
7013;SDS011;3547;50.774;12.918;2023-05-13T06:47:41;2.20;;;2.00;;
7013;SDS011;3547;50.774;12.918;2023-05-13T06:50:07;2.20;;;2.00;;
7013;SDS011;3547;50.774;12.918;2023-05-13T06:52:34;2.07;;;1.70;;
7013;SDS011;3547;50.774;12.918;2023-05-13T06:55:00;2.33;;;2.10;;
7013;SDS011;3547;50.774;12.918;2023-05-13T06:57:27;2.30;;;1.93;;
7013;SDS011;3547;50.774;12.918;2023-05-13T06:59:53;2.03;;;1.60;;
7013;SDS011;3547;50.774;12.918;2023-05-13T07:02:19;3.23;;;1.80;;
7013;SDS011;3547;50.774;12.918;2023-05-13T07:04:45;4.07;;;2.03;;
7013;SDS011;3547;50.774;12.918;2023-05-13T07:07:11;2.65;;;1.77;;
7013;SDS011;3547;50.774;12.918;2023-05-13T07:09:38;1.87;;;1.60;;
7013;SDS011;3547;50.774;12.918;2023-05-13T07:12:04;1.98;;;1.80;;
7013;SDS011;3547;50.774;12.918;2023-05-13T07:14:31;2.13;;;1.92;;
7013;SDS011;3547;50.774;12.918;2023-05-13T07:16:57;1.85;;;1.70;;
7013;SDS011;3547;50.774;12.918;2023-05-13T07:19:23;1.52;;;1.42;;
7013;SDS011;3547;50.774;12.918;2023-05-13T07:21:49;1.93;;;1.77;;
7013;SDS011;3547;50.774;12.918;2023-05-13T07:24:16;4.18;;;2.10;;
7013;SDS011;3547;50.774;12.918;2023-05-13T07:26:42;2.37;;;1.83;;
7013;SDS011;3547;50.774;12.918;2023-05-13T07:29:08;1.65;;;1.50;;
7013;SDS011;3547;50.774;12.918;2023-05-13T07:31:34;1.83;;;1.55;;
7013;SDS011;3547;50.774;12.918;2023-05-13T07:34:01;2.38;;;1.77;;
7013;SDS011;3547;50.774;12.918;2023-05-13T07:36:27;1.75;;;1.65;;
7013;SDS011;3547;50.774;12.918;2023-05-13T07:38:53;1.92;;;1.75;;
7013;SDS011;3547;50.774;12.918;2023-05-13T07:41:19;2.35;;;2.13;;
7013;SDS011;3547;50.774;12.918;2023-05-13T07:43:46;1.80;;;1.70;;
7013;SDS011;3547;50.774;12.918;2023-05-13T07:46:12;2.45;;;1.52;;
7013;SDS011;3547;50.774;12.918;2023-05-13T07:48:38;2.33;;;1.70;;
7013;SDS011;3547;50.774;12.918;2023-05-13T07:51:05;3.65;;;1.83;;
7013;SDS011;3547;50.774;12.918;2023-05-13T07:53:32;1.98;;;1.77;;
7013;SDS011;3547;50.774;12.918;2023-05-13T07:55:58;3.00;;;2.00;;
7013;SDS011;3547;50.774;12.918;2023-05-13T07:58:24;1.52;;;1.42;;
7013;SDS011;3547;50.774;12.918;2023-05-13T08:00:50;2.78;;;1.88;;
7013;SDS011;3547;50.774;12.918;2023-05-13T08:03:17;2.03;;;1.70;;
7013;SDS011;3547;50.774;12.918;2023-05-13T08:05:43;2.90;;;1.90;;
7013;SDS011;3547;50.774;12.918;2023-05-13T08:08:10;1.55;;;1.45;;
7013;SDS011;3547;50.774;12.918;2023-05-13T08:10:36;2.13;;;1.75;;
7013;SDS011;3547;50.774;12.918;2023-05-13T08:13:03;1.63;;;1.52;;
7013;SDS011;3547;50.774;12.918;2023-05-13T08:15:29;2.33;;;2.10;;
7013;SDS011;3547;50.774;12.918;2023-05-13T08:17:55;2.85;;;1.95;;
7013;SDS011;3547;50.774;12.918;2023-05-13T08:20:21;2.10;;;1.73;;
7013;SDS011;3547;50.774;12.918;2023-05-13T08:22:54;1.95;;;1.73;;
7013;SDS011;3547;50.774;12.918;2023-05-13T08:25:21;1.85;;;1.50;;
7013;SDS011;3547;50.774;12.918;2023-05-13T08:27:51;1.70;;;1.60;;
7013;SDS011;3547;50.774;12.918;2023-05-13T08:30:18;6.72;;;1.88;;
7013;SDS011;3547;50.774;12.918;2023-05-13T08:32:44;2.97;;;2.00;;
7013;SDS011;3547;50.774;12.918;2023-05-13T08:35:11;3.85;;;2.30;;
7013;SDS011;3547;50.774;12.918;2023-05-13T08:37:37;1.70;;;1.60;;
7013;SDS011;3547;50.774;12.918;2023-05-13T08:40:03;1.40;;;1.30;;
7013;SDS011;3547;50.774;12.918;2023-05-13T08:42:33;1.35;;;1.25;;
7013;SDS011;3547;50.774;12.918;2023-05-13T08:45:03;2.10;;;1.65;;
7013;SDS011;3547;50.774;12.918;2023-05-13T08:50:13;2.20;;;1.90;;
7013;SDS011;3547;50.774;12.918;2023-05-13T08:52:39;1.60;;;1.50;;
7013;SDS011;3547;50.774;12.918;2023-05-13T08:57:53;2.17;;;1.88;;
7013;SDS011;3547;50.774;12.918;2023-05-13T09:00:19;2.70;;;1.65;;
7013;SDS011;3547;50.774;12.918;2023-05-13T09:02:46;1.80;;;1.70;;
7013;SDS011;3547;50.774;12.918;2023-05-13T09:05:13;4.85;;;1.67;;
7013;SDS011;3547;50.774;12.918;2023-05-13T09:07:40;1.90;;;1.70;;
7013;SDS011;3547;50.774;12.918;2023-05-13T09:10:06;1.80;;;1.67;;
7013;SDS011;3547;50.774;12.918;2023-05-13T09:12:43;1.63;;;1.52;;
7013;SDS011;3547;50.774;12.918;2023-05-13T09:15:21;2.47;;;1.90;;
7013;SDS011;3547;50.774;12.918;2023-05-13T09:17:50;1.50;;;1.40;;
7013;SDS011;3547;50.774;12.918;2023-05-13T09:20:19;2.28;;;1.85;;
7013;SDS011;3547;50.774;12.918;2023-05-13T09:25:17;2.00;;;1.80;;
7013;SDS011;3547;50.774;12.918;2023-05-13T09:27:50;3.65;;;2.10;;
7013;SDS011;3547;50.774;12.918;2023-05-13T09:30:19;1.60;;;1.48;;
7013;SDS011;3547;50.774;12.918;2023-05-13T09:33:03;3.33;;;2.10;;
7013;SDS011;3547;50.774;12.918;2023-05-13T09:35:38;2.15;;;1.40;;
7013;SDS011;3547;50.774;12.918;2023-05-13T09:38:19;2.10;;;1.80;;
7013;SDS011;3547;50.774;12.918;2023-05-13T09:40:58;2.28;;;1.90;;
7013;SDS011;3547;50.774;12.918;2023-05-13T09:43:27;2.40;;;1.60;;
7013;SDS011;3547;50.774;12.918;2023-05-13T09:46:01;2.25;;;2.05;;
7013;SDS011;3547;50.774;12.918;2023-05-13T09:48:28;1.75;;;1.65;;
7013;SDS011;3547;50.774;12.918;2023-05-13T09:50:57;2.15;;;1.70;;
7013;SDS011;3547;50.774;12.918;2023-05-13T09:53:24;1.80;;;1.70;;
7013;SDS011;3547;50.774;12.918;2023-05-13T09:55:52;1.65;;;1.48;;
7013;SDS011;3547;50.774;12.918;2023-05-13T09:58:20;2.00;;;1.83;;
7013;SDS011;3547;50.774;12.918;2023-05-13T10:00:48;1.60;;;1.50;;
7013;SDS011;3547;50.774;12.918;2023-05-13T10:03:15;1.70;;;1.60;;
7013;SDS011;3547;50.774;12.918;2023-05-13T10:05:42;1.70;;;1.40;;
7013;SDS011;3547;50.774;12.918;2023-05-13T10:08:09;1.70;;;1.60;;
7013;SDS011;3547;50.774;12.918;2023-05-13T10:10:37;1.30;;;1.20;;
7013;SDS011;3547;50.774;12.918;2023-05-13T10:13:05;1.52;;;1.42;;
7013;SDS011;3547;50.774;12.918;2023-05-13T10:15:33;1.25;;;1.20;;
7013;SDS011;3547;50.774;12.918;2023-05-13T10:18:00;1.90;;;1.67;;
7013;SDS011;3547;50.774;12.918;2023-05-13T10:20:26;1.52;;;1.42;;
7013;SDS011;3547;50.774;12.918;2023-05-13T10:22:53;3.55;;;1.52;;
7013;SDS011;3547;50.774;12.918;2023-05-13T10:25:20;1.42;;;1.33;;
7013;SDS011;3547;50.774;12.918;2023-05-13T10:27:47;2.00;;;1.80;;
7013;SDS011;3547;50.774;12.918;2023-05-13T10:30:14;1.73;;;1.63;;
7013;SDS011;3547;50.774;12.918;2023-05-13T10:32:43;2.10;;;1.75;;
7013;SDS011;3547;50.774;12.918;2023-05-13T10:35:11;2.10;;;1.60;;
7013;SDS011;3547;50.774;12.918;2023-05-13T10:43:08;1.88;;;1.55;;
7013;SDS011;3547;50.774;12.918;2023-05-13T10:45:35;1.48;;;1.38;;
7013;SDS011;3547;50.774;12.918;2023-05-13T10:48:05;2.33;;;1.70;;
7013;SDS011;3547;50.774;12.918;2023-05-13T10:50:36;2.17;;;1.70;;
7013;SDS011;3547;50.774;12.918;2023-05-13T10:53:09;1.85;;;1.70;;
7013;SDS011;3547;50.774;12.918;2023-05-13T10:55:44;1.42;;;1.33;;
7013;SDS011;3547;50.774;12.918;2023-05-13T10:58:14;1.80;;;1.70;;
7013;SDS011;3547;50.774;12.918;2023-05-13T11:00:43;1.58;;;1.48;;
7013;SDS011;3547;50.774;12.918;2023-05-13T11:03:10;1.77;;;1.58;;
7013;SDS011;3547;50.774;12.918;2023-05-13T11:05:45;3.28;;;1.50;;
7013;SDS011;3547;50.774;12.918;2023-05-13T11:08:34;1.98;;;1.77;;
7013;SDS011;3547;50.774;12.918;2023-05-13T11:13:45;1.90;;;1.70;;
7013;SDS011;3547;50.774;12.918;2023-05-13T11:16:13;2.85;;;2.03;;
7013;SDS011;3547;50.774;12.918;2023-05-13T11:18:39;2.28;;;1.73;;
7013;SDS011;3547;50.774;12.918;2023-05-13T11:21:06;1.80;;;1.70;;
7013;SDS011;3547;50.774;12.918;2023-05-13T11:23:40;1.90;;;1.80;;
7013;SDS011;3547;50.774;12.918;2023-05-13T11:26:17;2.60;;;2.30;;
7013;SDS011;3547;50.774;12.918;2023-05-13T11:28:55;1.92;;;1.60;;
7013;SDS011;3547;50.774;12.918;2023-05-13T11:31:25;2.03;;;1.70;;
7013;SDS011;3547;50.774;12.918;2023-05-13T11:34:08;2.15;;;1.30;;
7013;SDS011;3547;50.774;12.918;2023-05-13T11:36:40;2.22;;;2.03;;
7013;SDS011;3547;50.774;12.918;2023-05-13T11:39:12;2.53;;;2.33;;
7013;SDS011;3547;50.774;12.918;2023-05-13T11:41:41;2.33;;;2.13;;
7013;SDS011;3547;50.774;12.918;2023-05-13T11:44:12;2.75;;;2.13;;
7013;SDS011;3547;50.774;12.918;2023-05-13T11:46:50;1.80;;;1.70;;
7013;SDS011;3547;50.774;12.918;2023-05-13T11:49:39;2.25;;;2.15;;
7013;SDS011;3547;50.774;12.918;2023-05-13T11:52:12;2.00;;;1.85;;
7013;SDS011;3547;50.774;12.918;2023-05-13T11:54:49;4.50;;;2.22;;
7013;SDS011;3547;50.774;12.918;2023-05-13T11:57:28;2.22;;;2.03;;
7013;SDS011;3547;50.774;12.918;2023-05-13T12:00:04;2.20;;;1.90;;
7013;SDS011;3547;50.774;12.918;2023-05-13T12:02:32;2.10;;;1.90;;
7013;SDS011;3547;50.774;12.918;2023-05-13T12:05:01;5.45;;;2.50;;
7013;SDS011;3547;50.774;12.918;2023-05-13T12:07:29;2.80;;;2.60;;
7013;SDS011;3547;50.774;12.918;2023-05-13T12:09:57;2.90;;;2.70;;
7013;SDS011;3547;50.774;12.918;2023-05-13T12:12:24;3.03;;;2.72;;
7013;SDS011;3547;50.774;12.918;2023-05-13T12:15:03;2.88;;;2.60;;
7013;SDS011;3547;50.774;12.918;2023-05-13T12:17:31;2.63;;;2.35;;
7013;SDS011;3547;50.774;12.918;2023-05-13T12:20:14;2.63;;;2.40;;
7013;SDS011;3547;50.774;12.918;2023-05-13T12:30:42;2.50;;;2.30;;
7013;SDS011;3547;50.774;12.918;2023-05-13T12:33:15;3.53;;;2.05;;
7013;SDS011;3547;50.774;12.918;2023-05-13T12:35:42;2.67;;;2.47;;
7013;SDS011;3547;50.774;12.918;2023-05-13T12:38:12;3.90;;;2.70;;
7013;SDS011;3547;50.774;12.918;2023-05-13T12:40:47;2.35;;;2.15;;
7013;SDS011;3547;50.774;12.918;2023-05-13T12:43:14;3.08;;;2.72;;
7013;SDS011;3547;50.774;12.918;2023-05-13T12:45:42;3.58;;;3.28;;
7013;SDS011;3547;50.774;12.918;2023-05-13T12:48:09;3.20;;;2.90;;
7013;SDS011;3547;50.774;12.918;2023-05-13T12:50:36;3.42;;;3.05;;
7013;SDS011;3547;50.774;12.918;2023-05-13T12:53:02;3.85;;;3.10;;
7013;SDS011;3547;50.774;12.918;2023-05-13T12:55:28;3.13;;;2.83;;
7013;SDS011;3547;50.774;12.918;2023-05-13T12:57:58;3.20;;;2.90;;
7013;SDS011;3547;50.774;12.918;2023-05-13T13:00:26;3.00;;;2.80;;
7013;SDS011;3547;50.774;12.918;2023-05-13T13:02:56;2.85;;;2.65;;
7013;SDS011;3547;50.774;12.918;2023-05-13T13:05:22;3.47;;;2.50;;
7013;SDS011;3547;50.774;12.918;2023-05-13T13:07:49;3.13;;;2.38;;
7013;SDS011;3547;50.774;12.918;2023-05-13T13:10:16;2.47;;;2.28;;
7013;SDS011;3547;50.774;12.918;2023-05-13T13:12:42;2.45;;;2.25;;
7013;SDS011;3547;50.774;12.918;2023-05-13T13:15:08;3.53;;;2.53;;
7013;SDS011;3547;50.774;12.918;2023-05-13T13:17:35;3.00;;;1.80;;
7013;SDS011;3547;50.774;12.918;2023-05-13T13:20:02;2.15;;;1.95;;
7013;SDS011;3547;50.774;12.918;2023-05-13T13:22:30;3.50;;;1.60;;
7013;SDS011;3547;50.774;12.918;2023-05-13T13:24:56;2.13;;;1.92;;
7013;SDS011;3547;50.774;12.918;2023-05-13T13:27:22;1.92;;;1.83;;
7013;SDS011;3547;50.774;12.918;2023-05-13T13:29:48;9.80;;;3.03;;
7013;SDS011;3547;50.774;12.918;2023-05-13T13:32:14;3.03;;;2.58;;
7013;SDS011;3547;50.774;12.918;2023-05-13T13:34:41;1.80;;;1.70;;
7013;SDS011;3547;50.774;12.918;2023-05-13T13:37:07;4.85;;;1.83;;
7013;SDS011;3547;50.774;12.918;2023-05-13T13:39:33;2.20;;;1.50;;
7013;SDS011;3547;50.774;12.918;2023-05-13T13:41:59;1.63;;;1.30;;
7013;SDS011;3547;50.774;12.918;2023-05-13T13:44:25;6.60;;;1.52;;
7013;SDS011;3547;50.774;12.918;2023-05-13T13:46:51;1.63;;;1.42;;
7013;SDS011;3547;50.774;12.918;2023-05-13T13:49:17;1.35;;;1.27;;
7013;SDS011;3547;50.774;12.918;2023-05-13T13:51:46;1.30;;;1.20;;
7013;SDS011;3547;50.774;12.918;2023-05-13T13:54:12;3.78;;;1.20;;
7013;SDS011;3547;50.774;12.918;2023-05-13T13:56:38;1.45;;;1.35;;
7013;SDS011;3547;50.774;12.918;2023-05-13T13:59:05;1.30;;;1.20;;
7013;SDS011;3547;50.774;12.918;2023-05-13T14:01:31;2.55;;;1.50;;
7013;SDS011;3547;50.774;12.918;2023-05-13T14:04:11;1.63;;;1.52;;
7013;SDS011;3547;50.774;12.918;2023-05-13T14:06:38;1.63;;;1.52;;
7013;SDS011;3547;50.774;12.918;2023-05-13T14:09:05;1.60;;;1.50;;
7013;SDS011;3547;50.774;12.918;2023-05-13T14:11:32;3.78;;;2.05;;
7013;SDS011;3547;50.774;12.918;2023-05-13T14:13:58;2.53;;;2.13;;
7013;SDS011;3547;50.774;12.918;2023-05-13T14:16:25;3.17;;;2.88;;
7013;SDS011;3547;50.774;12.918;2023-05-13T14:18:51;2.00;;;1.90;;
7013;SDS011;3547;50.774;12.918;2023-05-13T14:21:17;2.17;;;2.08;;
7013;SDS011;3547;50.774;12.918;2023-05-13T14:23:43;3.17;;;2.88;;
7013;SDS011;3547;50.774;12.918;2023-05-13T14:26:10;3.35;;;3.15;;
7013;SDS011;3547;50.774;12.918;2023-05-13T14:28:39;3.88;;;3.58;;
7013;SDS011;3547;50.774;12.918;2023-05-13T14:31:08;3.60;;;3.30;;
7013;SDS011;3547;50.774;12.918;2023-05-13T14:33:35;2.92;;;2.72;;
7013;SDS011;3547;50.774;12.918;2023-05-13T14:36:02;3.13;;;2.83;;
7013;SDS011;3547;50.774;12.918;2023-05-13T14:38:28;3.38;;;3.08;;
7013;SDS011;3547;50.774;12.918;2023-05-13T14:40:55;2.70;;;2.50;;
7013;SDS011;3547;50.774;12.918;2023-05-13T14:43:24;2.78;;;2.42;;
7013;SDS011;3547;50.774;12.918;2023-05-13T14:45:51;2.60;;;2.40;;
7013;SDS011;3547;50.774;12.918;2023-05-13T14:48:17;2.13;;;1.92;;
7013;SDS011;3547;50.774;12.918;2023-05-13T14:50:44;2.35;;;2.15;;
7013;SDS011;3547;50.774;12.918;2023-05-13T14:53:11;2.67;;;2.47;;
7013;SDS011;3547;50.774;12.918;2023-05-13T14:55:37;3.08;;;2.75;;
7013;SDS011;3547;50.774;12.918;2023-05-13T14:58:03;4.43;;;2.95;;
7013;SDS011;3547;50.774;12.918;2023-05-13T15:00:31;2.88;;;2.45;;
7013;SDS011;3547;50.774;12.918;2023-05-13T15:02:57;2.60;;;2.40;;
7013;SDS011;3547;50.774;12.918;2023-05-13T15:05:25;3.00;;;2.33;;
7013;SDS011;3547;50.774;12.918;2023-05-13T15:07:51;3.47;;;3.17;;
7013;SDS011;3547;50.774;12.918;2023-05-13T15:10:17;3.30;;;3.08;;
7013;SDS011;3547;50.774;12.918;2023-05-13T15:12:43;3.67;;;3.38;;
7013;SDS011;3547;50.774;12.918;2023-05-13T15:15:10;3.45;;;3.15;;
7013;SDS011;3547;50.774;12.918;2023-05-13T15:17:36;3.33;;;3.03;;
7013;SDS011;3547;50.774;12.918;2023-05-13T15:20:03;3.05;;;2.75;;
7013;SDS011;3547;50.774;12.918;2023-05-13T15:22:29;2.70;;;2.25;;
7013;SDS011;3547;50.774;12.918;2023-05-13T15:24:56;3.63;;;2.22;;
7013;SDS011;3547;50.774;12.918;2023-05-13T15:27:22;2.33;;;2.13;;
7013;SDS011;3547;50.774;12.918;2023-05-13T15:29:50;1.98;;;1.88;;
7013;SDS011;3547;50.774;12.918;2023-05-13T15:32:17;2.45;;;2.20;;
7013;SDS011;3547;50.774;12.918;2023-05-13T15:34:43;2.45;;;2.25;;
7013;SDS011;3547;50.774;12.918;2023-05-13T15:37:09;2.08;;;1.98;;
7013;SDS011;3547;50.774;12.918;2023-05-13T15:39:36;4.80;;;2.13;;
7013;SDS011;3547;50.774;12.918;2023-05-13T15:42:02;2.33;;;2.10;;
7013;SDS011;3547;50.774;12.918;2023-05-13T15:44:28;2.13;;;2.03;;
7013;SDS011;3547;50.774;12.918;2023-05-13T15:46:55;2.40;;;2.20;;
7013;SDS011;3547;50.774;12.918;2023-05-13T15:49:21;2.08;;;1.90;;
7013;SDS011;3547;50.774;12.918;2023-05-13T15:51:47;2.28;;;2.13;;
7013;SDS011;3547;50.774;12.918;2023-05-13T15:54:14;2.67;;;2.47;;
7013;SDS011;3547;50.774;12.918;2023-05-13T15:56:41;2.13;;;1.92;;
7013;SDS011;3547;50.774;12.918;2023-05-13T15:59:07;2.10;;;1.90;;
7013;SDS011;3547;50.774;12.918;2023-05-13T16:01:34;1.80;;;1.70;;
7013;SDS011;3547;50.774;12.918;2023-05-13T16:04:00;1.73;;;1.63;;
7013;SDS011;3547;50.774;12.918;2023-05-13T16:06:26;3.83;;;1.70;;
7013;SDS011;3547;50.774;12.918;2023-05-13T16:08:53;2.15;;;1.70;;
7013;SDS011;3547;50.774;12.918;2023-05-13T16:11:19;1.90;;;1.70;;
7013;SDS011;3547;50.774;12.918;2023-05-13T16:13:45;3.97;;;2.10;;
7013;SDS011;3547;50.774;12.918;2023-05-13T16:16:12;2.05;;;1.70;;
7013;SDS011;3547;50.774;12.918;2023-05-13T16:18:38;1.58;;;1.38;;
7013;SDS011;3547;50.774;12.918;2023-05-13T16:21:04;1.45;;;1.35;;
7013;SDS011;3547;50.774;12.918;2023-05-13T16:23:31;1.50;;;1.38;;
7013;SDS011;3547;50.774;12.918;2023-05-13T16:26:01;1.42;;;1.33;;
7013;SDS011;3547;50.774;12.918;2023-05-13T16:28:27;1.73;;;1.63;;
7013;SDS011;3547;50.774;12.918;2023-05-13T16:30:53;2.50;;;2.30;;
7013;SDS011;3547;50.774;12.918;2023-05-13T16:33:21;2.50;;;2.30;;
7013;SDS011;3547;50.774;12.918;2023-05-13T16:35:47;2.55;;;2.35;;
7013;SDS011;3547;50.774;12.918;2023-05-13T16:38:14;2.38;;;2.17;;
7013;SDS011;3547;50.774;12.918;2023-05-13T16:40:41;3.00;;;2.80;;
7013;SDS011;3547;50.774;12.918;2023-05-13T16:43:08;2.58;;;2.38;;
7013;SDS011;3547;50.774;12.918;2023-05-13T16:45:34;2.90;;;2.58;;
7013;SDS011;3547;50.774;12.918;2023-05-13T16:48:00;2.67;;;2.35;;
7013;SDS011;3547;50.774;12.918;2023-05-13T16:50:26;3.10;;;2.72;;
7013;SDS011;3547;50.774;12.918;2023-05-13T16:52:53;2.58;;;2.38;;
7013;SDS011;3547;50.774;12.918;2023-05-13T16:55:19;2.63;;;2.33;;
7013;SDS011;3547;50.774;12.918;2023-05-13T16:57:46;2.20;;;2.00;;
7013;SDS011;3547;50.774;12.918;2023-05-13T17:00:12;2.30;;;2.10;;
7013;SDS011;3547;50.774;12.918;2023-05-13T17:02:39;4.05;;;2.50;;
7013;SDS011;3547;50.774;12.918;2023-05-13T17:05:05;2.30;;;2.10;;
7013;SDS011;3547;50.774;12.918;2023-05-13T17:07:31;2.67;;;2.03;;
7013;SDS011;3547;50.774;12.918;2023-05-13T17:09:57;1.90;;;1.75;;
7013;SDS011;3547;50.774;12.918;2023-05-13T17:12:23;2.50;;;2.30;;
7013;SDS011;3547;50.774;12.918;2023-05-13T17:14:51;2.03;;;1.83;;
7013;SDS011;3547;50.774;12.918;2023-05-13T17:17:18;2.33;;;2.13;;
7013;SDS011;3547;50.774;12.918;2023-05-13T17:19:44;2.30;;;1.98;;
7013;SDS011;3547;50.774;12.918;2023-05-13T17:22:10;1.95;;;1.85;;
7013;SDS011;3547;50.774;12.918;2023-05-13T17:24:36;2.22;;;2.03;;
7013;SDS011;3547;50.774;12.918;2023-05-13T17:27:04;2.05;;;1.85;;
7013;SDS011;3547;50.774;12.918;2023-05-13T17:29:31;2.15;;;1.90;;